Time;durP1;ratioP1;P1;durP2;ratioP2;P2;SDS_P1;SDS_P2;PMS_P1;PMS_P2;Temp;Humidity;BMP_temperature;BMP_pressure;BME280_temperature;BME280_humidity;BME280_pressure;Samples;Min_cycle;Max_cycle;Signal;HPM_P1;HPM_P2
2022/03/25 00:00:08;;;;;;;156.68;89.28;;;5.60;99.90;;;;;;4991353;28;20410;-82
2022/03/25 00:02:36;;;;;;;164.05;90.05;;;;;;;;;;5008967;28;20054;-82
2022/03/25 00:05:04;;;;;;;151.98;87.82;;;;;;;;;;4991281;28;20094;-82
2022/03/25 00:07:30;;;;;;;155.70;87.53;;;;;;;;;;4990693;28;20061;-82
2022/03/25 00:09:56;;;;;;;158.68;88.13;;;;;;;;;;5008018;28;20050;-81
2022/03/25 00:12:22;;;;;;;163.60;89.57;;;;;;;;;;4991513;28;20046;-82
2022/03/25 00:14:48;;;;;;;154.90;88.72;;;;;;;;;;4974642;28;20054;-82
2022/03/25 00:17:13;;;;;;;153.05;86.88;;;5.50;99.90;;;;;;5008595;28;20039;-82
2022/03/25 00:19:39;;;;;;;143.80;83.88;;;6.20;99.90;;;;;;5008038;28;20053;-82
2022/03/25 00:22:05;;;;;;;152.27;88.57;;;;;;;;;;5008744;28;20077;-82
2022/03/25 00:24:31;;;;;;;159.02;88.53;;;;;;;;;;4975699;28;20552;-82
2022/03/25 00:26:57;;;;;;;160.05;90.00;;;;;;;;;;5012183;28;20058;-82
2022/03/25 00:29:23;;;;;;;154.68;88.00;;;;;;;;;;5013574;28;20065;-81
2022/03/25 00:31:49;;;;;;;164.70;89.50;;;;;;;;;;4979960;28;20097;-82
2022/03/25 00:34:15;;;;;;;152.27;87.47;;;;;;;;;;5012158;28;20052;-82
2022/03/25 00:36:41;;;;;;;156.05;88.20;;;;;;;;;;5012854;28;20054;-82
2022/03/25 00:39:08;;;;;;;153.90;87.88;;;;;;;;;;5012873;28;20042;-81
2022/03/25 00:41:36;;;;;;;158.02;88.80;;;5.20;99.90;;;;;;5014789;28;20105;-82
2022/03/25 00:44:04;;;;;;;157.77;90.82;;;5.20;99.90;;;;;;5015213;28;20039;-81
2022/03/25 00:46:30;;;;;;;155.93;87.63;;;;;;;;;;4997276;28;20062;-82
2022/03/25 00:48:57;;;;;;;157.30;87.90;;;;;;;;;;5013923;28;20061;-82
2022/03/25 00:51:23;;;;;;;149.48;86.57;;;;;;;;;;4996363;28;20057;-82
2022/03/25 00:53:48;;;;;;;163.43;90.07;;;5.20;99.90;;;;;;4979825;28;20038;-81
2022/03/25 00:56:14;;;;;;;162.68;90.63;;;;;;;;;;5013288;28;20045;-82
2022/03/25 00:58:40;;;;;;;162.88;90.47;;;;;;;;;;5010631;28;20084;-82
2022/03/25 01:01:06;;;;;;;169.15;93.85;;;5.30;99.90;;;;;;5010321;28;20046;-82
2022/03/25 01:03:32;;;;;;;167.52;91.22;;;;;;;;;;5010892;28;20113;-82
2022/03/25 01:05:58;;;;;;;166.82;93.47;;;;;;;;;;4978130;28;20058;-82
2022/03/25 01:08:24;;;;;;;163.23;91.30;;;;;;;;;;4977082;28;20042;-81
2022/03/25 01:10:50;;;;;;;173.40;94.53;;;;;;;;;;4993942;28;20065;-82
2022/03/25 01:13:16;;;;;;;168.88;91.90;;;;;;;;;;5011250;28;20042;-82
2022/03/25 01:15:42;;;;;;;168.98;92.43;;;;;;;;;;4993339;28;20047;-82
2022/03/25 01:18:08;;;;;;;183.07;94.88;;;;;;;;;;4992815;28;20126;-82
2022/03/25 01:20:34;;;;;;;171.02;94.00;;;;;;;;;;5009375;28;20047;-82
2022/03/25 01:23:00;;;;;;;158.48;90.35;;;5.50;99.90;;;;;;4991708;28;20038;-82
2022/03/25 01:25:26;;;;;;;171.45;93.88;;;;;;;;;;4992555;28;20043;-82
2022/03/25 01:27:52;;;;;;;169.73;93.10;;;;;;;;;;4976788;28;20042;-82
2022/03/25 01:30:18;;;;;;;184.43;97.65;;;;;;;;;;5010325;28;20050;-81
2022/03/25 01:32:44;;;;;;;174.93;94.97;;;;;;;;;;5010596;28;20062;-81
2022/03/25 01:35:11;;;;;;;167.25;92.65;;;;;;;;;;4993060;28;20391;-82
2022/03/25 01:37:37;;;;;;;167.27;91.50;;;;;;;;;;5009283;28;20656;-81
2022/03/25 01:40:09;;;;;;;172.50;92.10;;;4.90;99.90;;;;;;4993590;28;20053;-82
2022/03/25 01:42:36;;;;;;;164.80;91.43;;;4.70;99.90;;;;;;5010020;28;20409;-82
2022/03/25 01:45:03;;;;;;;167.70;91.88;;;4.50;99.90;;;;;;4976867;28;20042;-82
2022/03/25 01:47:31;;;;;;;174.43;94.32;;;4.60;99.90;;;;;;4994181;28;20054;-82
2022/03/25 01:49:57;;;;;;;180.27;94.28;;;;;;;;;;5011715;28;20045;-81
2022/03/25 01:52:23;;;;;;;171.80;92.18;;;;;;;;;;4993031;28;20081;-82
2022/03/25 01:54:49;;;;;;;164.25;91.35;;;;;;;;;;5009132;28;20094;-82
2022/03/25 01:57:15;;;;;;;166.80;91.13;;;;;;;;;;5008636;28;20046;-82
2022/03/25 01:59:41;;;;;;;168.68;92.00;;;;;;;;;;4992115;28;20050;-81
2022/03/25 02:02:09;;;;;;;179.40;94.88;;;4.40;99.90;;;;;;5152640;23;20037;-61
2022/03/25 02:04:35;;;;;;;167.32;91.95;;;4.30;99.90;;;;;;5055337;28;20041;-63
2022/03/25 02:07:02;;;;;;;166.82;92.18;;;4.40;99.90;;;;;;5055301;28;20037;-64
2022/03/25 02:09:28;;;;;;;152.75;88.13;;;4.20;99.90;;;;;;5037024;28;20041;-64
2022/03/25 02:11:55;;;;;;;144.57;85.85;;;4.50;99.90;;;;;;5020403;28;20080;-63
2022/03/25 02:14:22;;;;;;;146.75;87.03;;;4.30;99.90;;;;;;5036994;28;20036;-63
2022/03/25 02:16:49;;;;;;;158.57;88.35;;;3.70;99.90;;;;;;5054832;28;20480;-63
2022/03/25 02:19:18;;;;;;;162.27;88.70;;;4.10;99.90;;;;;;5055131;28;20098;-63
2022/03/25 02:21:47;;;;;;;144.43;84.75;;;3.90;99.90;;;;;;5055020;28;20037;-63
2022/03/25 02:24:14;;;;;;;175.40;92.22;;;4.10;99.90;;;;;;5036855;28;20459;-63
2022/03/25 02:26:42;;;;;;;157.50;88.80;;;4.00;99.90;;;;;;5054955;28;20080;-63
2022/03/25 02:29:09;;;;;;;156.00;87.30;;;4.10;99.90;;;;;;5054833;28;20064;-63
2022/03/25 02:31:36;;;;;;;156.88;88.30;;;3.50;99.90;;;;;;5036706;28;20103;-63
2022/03/25 02:34:04;;;;;;;152.90;86.95;;;3.90;99.90;;;;;;5036617;28;20116;-63
2022/03/25 02:36:38;;;;;;;144.50;77.32;;;3.70;99.90;;;;;;5054473;28;20048;-63
2022/03/25 02:39:09;;;;;;;155.23;85.95;;;3.80;99.90;;;;;;5054707;28;20033;-64
2022/03/25 02:41:35;;;;;;;168.93;91.05;;;3.90;99.90;;;;;;5054617;28;20120;-63
2022/03/25 02:44:03;;;;;;;159.00;88.72;;;3.80;99.90;;;;;;5054621;28;20112;-62
2022/03/25 02:46:29;;;;;;;174.57;93.47;;;3.50;99.90;;;;;;5054247;28;20495;-63
2022/03/25 02:48:55;;;;;;;152.18;86.65;;;4.10;99.90;;;;;;5054337;28;20052;-63
2022/03/25 02:51:21;;;;;;;160.60;89.65;;;;;;;;;;5054507;28;20040;-63
2022/03/25 02:53:47;;;;;;;153.10;87.88;;;3.50;99.90;;;;;;5051794;28;20128;-62
2022/03/25 02:56:13;;;;;;;167.70;92.75;;;3.90;99.90;;;;;;5054326;28;20044;-62
2022/03/25 02:58:39;;;;;;;154.70;77.03;;;3.60;99.90;;;;;;5036183;28;20044;-62
2022/03/25 03:01:09;;;;;;;173.05;91.35;;;3.60;99.90;;;;;;5053796;28;20080;-69
2022/03/25 03:03:34;;;;;;;146.65;76.35;;;3.70;99.90;;;;;;5053889;28;20514;-69
2022/03/25 03:06:00;;;;;;;164.07;88.63;;;3.60;99.90;;;;;;5036079;28;20049;-69
2022/03/25 03:08:27;;;;;;;147.90;85.97;;;3.50;99.90;;;;;;5054141;28;20041;-69
2022/03/25 03:10:52;;;;;;;161.23;74.32;;;3.50;99.90;;;;;;5054082;28;20044;-69
2022/03/25 03:13:20;;;;;;;146.23;85.50;;;3.50;99.90;;;;;;5053845;28;20476;-69
2022/03/25 03:15:47;;;;;;;121.95;77.50;;;3.80;99.90;;;;;;5054030;28;20048;-69
2022/03/25 03:18:14;;;;;;;124.95;76.40;;;3.40;99.90;;;;;;5035859;28;20040;-69
2022/03/25 03:20:41;;;;;;;117.57;73.45;;;3.40;99.90;;;;;;5053637;28;20519;-69
2022/03/25 03:23:07;;;;;;;103.55;59.08;;;3.40;99.90;;;;;;5053938;28;20048;-69
2022/03/25 03:25:34;;;;;;;116.72;66.07;;;3.20;99.90;;;;;;5053852;28;20081;-69
2022/03/25 03:28:00;;;;;;;120.32;74.95;;;3.30;99.90;;;;;;5053877;28;20041;-69
2022/03/25 03:30:29;;;;;;;134.13;80.32;;;3.20;99.90;;;;;;5053725;28;20037;-69
2022/03/25 03:32:57;;;;;;;134.15;79.90;;;3.20;99.90;;;;;;5054077;28;20045;-69
2022/03/25 03:35:25;;;;;;;135.90;80.07;;;3.20;99.90;;;;;;5053738;28;20045;-69
2022/03/25 03:37:52;;;;;;;124.43;75.82;;;2.70;99.90;;;;;;5053775;28;20033;-69
2022/03/25 03:40:19;;;;;;;177.27;80.35;;;3.90;99.90;;;;;;5053356;28;20487;-62
2022/03/25 03:42:45;;;;;;;663.60;89.70;;;;;;;;;;5035935;28;20052;-63
2022/03/25 03:45:13;;;;;;;727.47;81.30;;;3.20;99.90;;;;;;5053621;28;20037;-62
2022/03/25 03:47:40;;;;;;;252.65;77.45;;;3.90;99.90;;;;;;5035843;28;20044;-62
2022/03/25 03:50:08;;;;;;;320.95;69.97;;;3.00;99.90;;;;;;5051723;28;20092;-62
2022/03/25 03:52:35;;;;;;;265.88;79.10;;;3.00;99.90;;;;;;5053532;28;20044;-62
2022/03/25 03:55:03;;;;;;;132.15;63.50;;;2.30;99.90;;;;;;5035675;28;20045;-69
2022/03/25 03:57:29;;;;;;;233.38;80.45;;;3.00;99.90;;;;;;5035752;28;20037;-69
2022/03/25 03:59:55;;;;;;;155.65;72.80;;;;;;;;;;5055188;28;20037;-62
2022/03/25 04:02:21;;;;;;;192.57;76.53;;;3.10;99.90;;;;;;5057219;28;20068;-62
2022/03/25 04:04:47;;;;;;;750.42;107.22;;;3.00;99.90;;;;;;5057610;28;20053;-69
2022/03/25 04:07:13;;;;;;;678.30;100.93;;;2.90;99.90;;;;;;5057573;28;20045;-69
2022/03/25 04:09:40;;;;;;;214.70;79.03;;;;;;;;;;5057475;28;20033;-69
2022/03/25 04:12:06;;;;;;;387.80;85.72;;;3.10;99.90;;;;;;5057508;28;20049;-69
2022/03/25 04:14:31;;;;;;;415.88;74.18;;;3.90;99.90;;;;;;5039765;28;20037;-69
2022/03/25 04:16:57;;;;;;;226.13;67.05;;;3.00;99.90;;;;;;5039578;28;20460;-69
2022/03/25 04:19:26;;;;;;;399.25;74.32;;;;;;;;;;5057036;28;20037;-69
2022/03/25 04:21:52;;;;;;;230.63;81.18;;;;;;;;;;5039239;28;20098;-69
2022/03/25 04:24:18;;;;;;;208.52;66.10;;;2.90;99.90;;;;;;5057299;28;20051;-69
2022/03/25 04:26:44;;;;;;;193.77;61.17;;;2.50;99.90;;;;;;5039141;28;20123;-68
2022/03/25 04:29:11;;;;;;;292.98;71.43;;;2.90;99.90;;;;;;5057080;28;20051;-69
2022/03/25 04:31:37;;;;;;;127.28;61.08;;;;;;;;;;5057135;28;20177;-69
2022/03/25 04:34:03;;;;;;;135.10;62.05;;;3.20;99.90;;;;;;5038981;28;20052;-69
2022/03/25 04:36:29;;;;;;;333.20;66.85;;;2.80;99.90;;;;;;5057051;28;20407;-69
2022/03/25 04:38:56;;;;;;;200.95;80.10;;;3.00;99.90;;;;;;5056979;28;20369;-69
2022/03/25 04:41:23;;;;;;;146.95;70.13;;;2.90;99.90;;;;;;5056983;28;20049;-68
2022/03/25 04:43:51;;;;;;;150.00;65.95;;;3.00;99.90;;;;;;5038809;28;20487;-68
2022/03/25 04:46:18;;;;;;;230.10;80.88;;;2.70;99.90;;;;;;5056532;28;20487;-69
2022/03/25 04:48:44;;;;;;;331.20;83.65;;;1.80;99.90;;;;;;5038712;28;20037;-68
2022/03/25 04:51:10;;;;;;;134.80;58.38;;;2.70;99.90;;;;;;5056319;28;20446;-69
2022/03/25 04:53:38;;;;;;;276.08;62.65;;;2.80;99.90;;;;;;5056372;28;20148;-69
2022/03/25 04:56:04;;;;;;;420.60;75.10;;;2.90;99.90;;;;;;5056661;28;20029;-69
2022/03/25 04:58:30;;;;;;;341.88;83.63;;;2.60;99.90;;;;;;5056308;28;20120;-68
2022/03/25 05:00:56;;;;;;;254.88;66.65;;;2.60;99.90;;;;;;5056289;28;20080;-68
2022/03/25 05:03:22;;;;;;;180.20;86.25;;;;;;;;;;5038453;28;20057;-69
2022/03/25 05:05:49;;;;;;;149.30;62.88;;;3.70;99.90;;;;;;5056508;28;20052;-69
2022/03/25 05:08:15;;;;;;;236.20;65.03;;;2.50;99.90;;;;;;5021740;28;20056;-69
2022/03/25 05:10:41;;;;;;;388.27;74.93;;;2.60;99.90;;;;;;5020742;28;20052;-68
2022/03/25 05:13:08;;;;;;;294.17;72.35;;;2.60;99.90;;;;;;5055624;28;20041;-68
2022/03/25 05:15:35;;;;;;;315.08;69.50;;;2.90;99.90;;;;;;5056072;28;20115;-68
2022/03/25 05:18:01;;;;;;;149.65;74.40;;;2.60;99.90;;;;;;5038402;28;20393;-68
2022/03/25 05:20:27;;;;;;;169.70;70.93;;;;;;;;;;5038341;28;20492;-68
2022/03/25 05:22:55;;;;;;;251.35;65.13;;;2.20;99.90;;;;;;5055941;28;20037;-68
2022/03/25 05:25:22;;;;;;;165.25;62.42;;;2.50;99.90;;;;;;5037992;28;20048;-69
2022/03/25 05:28:00;;;;;;;123.40;59.63;;;2.50;99.90;;;;;;5021605;28;20388;-69
2022/03/25 05:30:31;;;;;;;139.15;60.88;;;1.60;99.90;;;;;;5055628;28;20029;-69
2022/03/25 05:32:58;;;;;;;167.73;65.38;;;2.20;99.90;;;;;;5055966;28;20045;-69
2022/03/25 05:35:25;;;;;;;164.13;62.10;;;2.50;99.90;;;;;;5055873;28;20076;-69
2022/03/25 05:37:52;;;;;;;163.75;59.97;;;2.50;99.90;;;;;;5055839;28;20037;-68
2022/03/25 05:40:20;;;;;;;143.45;60.55;;;2.40;99.90;;;;;;5055735;28;20044;-68
2022/03/25 05:42:47;;;;;;;145.75;63.25;;;2.50;99.90;;;;;;5055723;28;20036;-68
2022/03/25 05:45:13;;;;;;;176.45;63.65;;;2.30;99.90;;;;;;5055678;28;20099;-68
2022/03/25 05:47:40;;;;;;;127.18;69.03;;;1.80;99.90;;;;;;5037455;28;20045;-69
2022/03/25 05:50:09;;;;;;;128.27;56.92;;;2.40;99.90;;;;;;5055263;28;20040;-69
2022/03/25 05:52:35;;;;;;;147.45;64.05;;;3.20;99.90;;;;;;5055566;28;20048;-62
2022/03/25 05:55:01;;;;;;;117.50;57.08;;;;;;;;;;5055148;28;20115;-62
2022/03/25 05:57:27;;;;;;;130.40;58.20;;;2.30;99.90;;;;;;5055480;28;20107;-62
2022/03/25 05:59:52;;;;;;;141.93;58.88;;;2.20;99.90;;;;;;5055442;28;20472;-62
2022/03/25 06:02:19;;;;;;;147.00;67.18;;;2.70;99.90;;;;;;5033858;28;20099;-62
2022/03/25 06:04:45;;;;;;;119.50;60.33;;;2.80;99.90;;;;;;5033996;28;20048;-62
2022/03/25 06:07:12;;;;;;;108.20;58.05;;;2.40;99.90;;;;;;5035368;28;20099;-62
2022/03/25 06:09:38;;;;;;;103.70;58.15;;;2.30;99.90;;;;;;5033626;28;20511;-62
2022/03/25 06:12:04;;;;;;;116.07;55.88;;;2.50;99.90;;;;;;5035235;28;20042;-62
2022/03/25 06:14:30;;;;;;;112.70;60.55;;;;;;;;;;5033684;28;20206;-62
2022/03/25 06:16:56;;;;;;;108.05;58.60;;;2.50;99.90;;;;;;5035174;28;20033;-60
2022/03/25 06:19:21;;;;;;;106.68;58.58;;;2.90;99.90;;;;;;5032919;28;20554;-60
2022/03/25 06:21:47;;;;;;;103.40;54.17;;;2.80;99.90;;;;;;5033402;28;20040;-60
2022/03/25 06:24:13;;;;;;;99.85;57.90;;;2.80;99.90;;;;;;5034751;28;20049;-61
2022/03/25 06:26:39;;;;;;;96.38;56.72;;;3.00;99.90;;;;;;5033524;28;20048;-60
2022/03/25 06:29:05;;;;;;;89.78;52.72;;;3.40;99.90;;;;;;5016877;28;20124;-61
2022/03/25 06:31:31;;;;;;;82.82;54.60;;;3.70;99.90;;;;;;5034922;28;20132;-61
2022/03/25 06:33:56;;;;;;;88.07;60.63;;;4.70;99.90;;;;;;5033572;28;20073;-61
2022/03/25 06:36:22;;;;;;;84.18;58.97;;;4.70;99.90;;;;;;5034747;28;20037;-63
2022/03/25 06:38:48;;;;;;;70.45;53.75;;;5.60;99.90;;;;;;5035462;28;20037;-61
2022/03/25 06:41:14;;;;;;;61.83;48.25;;;6.00;99.90;;;;;;5016705;28;20073;-61
2022/03/25 06:43:40;;;;;;;60.72;46.90;;;6.80;99.90;;;;;;5034274;28;20478;-61
2022/03/25 06:46:06;;;;;;;59.53;45.55;;;6.80;99.90;;;;;;5034291;28;20120;-60
2022/03/25 06:48:35;;;;;;;61.92;48.60;;;;;;;;;;5034096;28;20045;-61
2022/03/25 06:51:01;;;;;;;59.92;46.17;;;7.40;99.90;;;;;;5034399;28;20087;-61
2022/03/25 06:53:28;;;;;;;62.20;47.90;;;8.40;99.90;;;;;;5032915;28;20045;-61
2022/03/25 06:55:55;;;;;;;58.67;45.47;;;8.70;99.90;;;;;;5034348;28;20064;-61
2022/03/25 06:58:21;;;;;;;54.08;42.47;;;9.20;99.90;;;;;;5032739;28;20044;-61
2022/03/25 07:00:47;;;;;;;54.45;43.45;;;9.90;99.90;;;;;;5038716;28;20052;-61
2022/03/25 07:03:14;;;;;;;51.97;41.35;;;10.10;99.90;;;;;;5053805;28;20090;-61
2022/03/25 07:05:40;;;;;;;56.60;42.63;;;;;;;;;;5035954;28;20052;-61
2022/03/25 07:08:07;;;;;;;54.42;42.10;;;10.60;99.90;;;;;;5036173;28;20120;-61
2022/03/25 07:10:36;;;;;;;53.55;42.92;;;10.50;99.90;;;;;;5054264;28;20037;-60
2022/03/25 07:13:03;;;;;;;57.75;43.20;;;10.20;99.90;;;;;;5036116;28;20523;-60
2022/03/25 07:15:29;;;;;;;59.25;44.67;;;9.80;99.90;;;;;;5053530;28;20495;-60
2022/03/25 07:17:55;;;;;;;59.92;44.15;;;9.40;99.90;;;;;;5035744;28;20103;-61
2022/03/25 07:20:22;;;;;;;60.45;45.45;;;9.00;99.90;;;;;;5035978;28;20387;-61
2022/03/25 07:22:50;;;;;;;62.95;45.70;;;8.40;99.90;;;;;;5035679;28;20128;-61
2022/03/25 07:25:17;;;;;;;59.78;44.92;;;8.00;99.90;;;;;;5053829;28;20086;-60
2022/03/25 07:27:45;;;;;;;66.05;46.90;;;8.50;99.90;;;;;;5036135;28;20041;-60
2022/03/25 07:30:12;;;;;;;64.68;47.53;;;7.90;99.90;;;;;;5035659;28;20114;-60
2022/03/25 07:32:38;;;;;;;66.10;47.28;;;7.70;99.90;;;;;;5053681;28;20041;-60
2022/03/25 07:35:05;;;;;;;73.82;47.63;;;7.80;99.90;;;;;;5052978;28;20037;-60
2022/03/25 07:37:32;;;;;;;70.78;48.95;;;7.80;99.90;;;;;;5053671;28;20111;-60
2022/03/25 07:39:57;;;;;;;71.22;49.35;;;7.90;99.90;;;;;;5035494;28;20553;-61
2022/03/25 07:42:24;;;;;;;67.90;47.80;;;7.80;99.90;;;;;;5053513;28;20044;-61
2022/03/25 07:44:50;;;;;;;71.95;47.60;;;7.50;99.90;;;;;;5035746;28;20111;-61
2022/03/25 07:47:16;;;;;;;67.32;47.67;;;;;;;;;;5053518;28;20052;-61
2022/03/25 07:49:43;;;;;;;70.18;49.25;;;8.10;99.90;;;;;;5053154;28;20091;-61
2022/03/25 07:52:10;;;;;;;73.07;48.80;;;8.70;99.90;;;;;;5053549;28;20438;-63
2022/03/25 07:54:37;;;;;;;74.80;49.35;;;8.10;99.90;;;;;;5003126;28;20373;-61
2022/03/25 07:57:03;;;;;;;74.03;49.03;;;8.00;99.90;;;;;;5053446;28;20037;-61
2022/03/25 07:59:29;;;;;;;72.22;48.22;;;9.10;99.90;;;;;;5053467;28;20484;-61
2022/03/25 08:01:56;;;;;;;70.57;48.35;;;8.20;99.90;;;;;;5035122;28;20148;-61
2022/03/25 08:04:25;;;;;;;71.82;46.60;;;8.00;99.90;;;;;;5053043;28;20504;-62
2022/03/25 08:06:52;;;;;;;72.47;46.38;;;8.60;99.90;;;;;;5053394;28;20041;-61
2022/03/25 08:09:18;;;;;;;69.95;46.13;;;8.30;99.90;;;;;;5035096;28;20091;-61
2022/03/25 08:11:46;;;;;;;72.90;47.00;;;8.00;99.90;;;;;;5053414;28;20076;-61
2022/03/25 08:14:13;;;;;;;70.57;46.90;;;8.60;99.90;;;;;;5035966;28;20124;-62
2022/03/25 08:16:39;;;;;;;72.30;45.67;;;8.40;99.90;;;;;;5053339;28;20114;-61
2022/03/25 08:19:06;;;;;;;71.03;45.60;;;10.00;99.90;;;;;;5035181;28;20048;-61
2022/03/25 08:21:32;;;;;;;67.40;44.67;;;10.20;99.90;;;;;;5053296;28;20065;-61
2022/03/25 08:29:27;;;;;;;67.70;45.97;;;12.40;99.90;;;;;;5053141;28;20052;-61
2022/03/25 08:31:54;;;;;;;69.15;44.92;;;12.30;99.90;;;;;;5053141;28;20045;-61
2022/03/25 08:34:21;;;;;;;63.53;44.25;;;11.90;99.90;;;;;;5053184;28;20063;-61
2022/03/25 08:36:48;;;;;;;62.15;44.38;;;11.90;99.90;;;;;;5053061;28;20048;-61
2022/03/25 08:39:15;;;;;;;69.97;42.38;;;11.80;99.90;;;;;;5052732;28;20092;-61
2022/03/25 08:41:41;;;;;;;63.13;42.95;;;12.10;99.90;;;;;;5053079;28;20111;-61
2022/03/25 08:44:07;;;;;;;61.97;42.38;;;12.10;99.90;;;;;;5053030;28;20033;-62
2022/03/25 08:46:34;;;;;;;60.45;43.08;;;12.00;99.90;;;;;;5055476;28;20037;-61
2022/03/25 08:49:04;;;;;;;60.03;42.50;;;11.60;99.90;;;;;;5056701;28;20045;-61
2022/03/25 08:51:30;;;;;;;61.20;42.65;;;12.00;99.90;;;;;;5056233;28;20400;-61
2022/03/25 08:53:56;;;;;;;57.20;41.50;;;12.00;99.90;;;;;;5038425;28;20049;-61
2022/03/25 08:56:27;;;;;;;61.05;41.50;;;12.20;99.90;;;;;;5056321;28;20045;-62
2022/03/25 08:58:54;;;;;;;62.97;41.80;;;12.20;99.90;;;;;;5056879;28;20056;-62
2022/03/25 09:01:24;;;;;;;57.10;41.33;;;12.10;99.90;;;;;;5056021;28;20088;-62
2022/03/25 09:03:49;;;;;;;57.25;40.67;;;12.10;99.90;;;;;;5056167;28;20049;-62
2022/03/25 09:06:16;;;;;;;57.00;41.38;;;12.50;99.90;;;;;;5056469;28;20041;-62
2022/03/25 09:08:41;;;;;;;58.53;41.42;;;12.60;99.90;;;;;;5038298;28;20491;-62
2022/03/25 09:11:09;;;;;;;64.68;41.85;;;;;;;;;;5056168;28;20080;-62
2022/03/25 09:13:35;;;;;;;62.88;41.97;;;;;;;;;;5037965;28;20078;-62
2022/03/25 09:16:01;;;;;;;60.65;41.40;;;12.30;99.90;;;;;;5053688;28;20045;-62
2022/03/25 09:18:27;;;;;;;60.03;41.47;;;12.50;99.90;;;;;;5056074;28;20028;-62
2022/03/25 09:20:53;;;;;;;63.47;40.80;;;12.30;99.90;;;;;;5055707;28;20095;-62
2022/03/25 09:23:18;;;;;;;59.33;40.85;;;12.60;99.90;;;;;;5038886;28;20037;-62
2022/03/25 09:25:44;;;;;;;64.25;42.00;;;12.50;99.90;;;;;;5037831;28;20040;-63
2022/03/25 09:28:10;;;;;;;61.53;41.33;;;12.10;99.90;;;;;;5055563;28;20127;-63
2022/03/25 09:30:36;;;;;;;60.95;42.95;;;12.20;99.90;;;;;;5055793;28;20040;-62
2022/03/25 09:33:03;;;;;;;66.30;42.38;;;12.60;99.90;;;;;;5055850;28;20052;-63
2022/03/25 09:35:32;;;;;;;61.40;41.63;;;12.40;99.90;;;;;;5039384;28;20395;-63
2022/03/25 09:37:57;;;;;;;54.75;40.85;;;12.50;99.90;;;;;;5055796;28;20033;-62
2022/03/25 09:40:25;;;;;;;58.42;40.33;;;12.80;99.90;;;;;;5055416;28;20419;-63
2022/03/25 09:42:53;;;;;;;57.90;39.88;;;12.90;99.90;;;;;;5055777;28;20073;-63
2022/03/25 09:45:20;;;;;;;56.03;39.85;;;12.90;99.90;;;;;;5055660;28;20076;-62
2022/03/25 09:47:48;;;;;;;60.33;40.17;;;13.30;99.90;;;;;;5055618;28;20049;-63
2022/03/25 09:50:17;;;;;;;64.68;40.45;;;13.50;99.90;;;;;;5055691;28;20033;-63
2022/03/25 09:52:44;;;;;;;57.60;40.10;;;13.50;99.90;;;;;;5037538;28;20132;-63
2022/03/25 09:55:11;;;;;;;61.72;40.38;;;13.10;99.90;;;;;;5037716;28;20047;-63
2022/03/25 09:57:37;;;;;;;57.15;40.22;;;13.20;99.90;;;;;;5054654;28;20037;-64
2022/03/25 10:00:05;;;;;;;58.80;39.92;;;13.50;99.90;;;;;;5055350;28;20059;-63
2022/03/25 10:02:32;;;;;;;60.85;39.67;;;14.10;99.90;;;;;;5054878;28;20053;-63
2022/03/25 10:04:57;;;;;;;58.00;38.38;;;14.10;99.90;;;;;;5055218;28;20393;-63
2022/03/25 10:07:33;;;;;;;59.78;39.83;;;13.70;99.90;;;;;;5054967;28;20041;-70
2022/03/25 10:10:13;;;;;;;57.42;38.53;;;13.70;99.90;;;;;;5021146;28;20045;-70
2022/03/25 10:12:42;;;;;;;55.70;38.47;;;13.60;99.90;;;;;;5020830;28;20427;-70
2022/03/25 10:15:13;;;;;;;55.97;38.88;;;14.00;99.90;;;;;;5053520;28;20056;-71
2022/03/25 10:17:51;;;;;;;55.03;37.17;;;14.30;99.90;;;;;;5054900;28;20455;-71
2022/03/25 10:20:18;;;;;;;56.95;37.58;;;13.40;99.90;;;;;;5054936;28;20069;-70
2022/03/25 10:23:19;;;;;;;55.65;37.17;;;13.90;99.90;;;;;;5054510;28;20037;-70
2022/03/25 10:25:56;;;;;;;57.08;37.83;;;13.90;99.90;;;;;;5012549;28;20057;-70
2022/03/25 10:28:30;;;;;;;62.25;38.83;;;14.20;99.90;;;;;;5055010;28;20381;-70
2022/03/25 10:31:05;;;;;;;56.95;37.63;;;14.70;99.90;;;;;;5054642;28;20388;-70
2022/03/25 10:33:36;;;;;;;58.30;38.13;;;14.50;99.90;;;;;;5054411;28;20051;-71
2022/03/25 10:36:08;;;;;;;60.85;38.85;;;14.50;95.70;;;;;;5054339;28;20037;-70
2022/03/25 10:39:01;;;;;;;57.60;37.38;;;14.60;99.90;;;;;;5054545;28;20037;-70
2022/03/25 10:41:41;;;;;;;58.97;38.17;;;14.80;99.90;;;;;;5051260;28;20187;-71
2022/03/25 10:44:09;;;;;;;60.78;37.78;;;15.00;99.90;;;;;;5054347;28;20037;-64
2022/03/25 10:46:39;;;;;;;62.38;36.35;;;14.90;99.90;;;;;;5036536;28;20049;-64
2022/03/25 10:49:11;;;;;;;57.00;36.95;;;15.10;99.90;;;;;;5036130;28;20062;-64
2022/03/25 10:51:56;;;;;;;56.40;35.92;;;15.90;99.90;;;;;;5054001;28;20507;-64
2022/03/25 10:54:25;;;;;;;57.00;36.38;;;15.20;99.90;;;;;;5036466;28;20049;-64
2022/03/25 10:56:58;;;;;;;60.45;37.67;;;15.50;99.90;;;;;;5053866;28;20068;-64
2022/03/25 10:59:29;;;;;;;60.22;35.88;;;15.20;99.90;;;;;;5054188;28;20064;-64
2022/03/25 11:01:58;;;;;;;59.78;36.38;;;15.30;99.90;;;;;;5053684;28;20036;-64
2022/03/25 11:04:24;;;;;;;58.65;35.25;;;15.90;93.50;;;;;;5054121;28;20041;-64
2022/03/25 11:06:51;;;;;;;57.35;36.45;;;;;;;;;;5054097;28;20480;-65
2022/03/25 11:09:18;;;;;;;62.50;34.45;;;15.10;99.90;;;;;;5053799;28;20037;-64
2022/03/25 11:11:49;;;;;;;54.95;33.97;;;15.00;99.90;;;;;;5054060;28;20048;-66
2022/03/25 11:14:16;;;;;;;54.65;34.00;;;15.20;99.00;;;;;;5053638;28;20484;-65
2022/03/25 11:16:48;;;;;;;53.42;33.83;;;15.40;99.90;;;;;;5036092;28;20103;-65
2022/03/25 11:19:18;;;;;;;57.42;33.70;;;;;;;;;;5053680;28;20507;-65
2022/03/25 11:21:45;;;;;;;53.65;33.25;;;15.20;99.60;;;;;;5053658;28;20048;-65
2022/03/25 11:24:33;;;;;;;55.83;33.10;;;15.30;99.00;;;;;;5053524;28;20044;-65
2022/03/25 11:27:25;;;;;;;54.35;33.70;;;15.60;99.10;;;;;;5035863;28;20051;-65
2022/03/25 11:29:54;;;;;;;65.07;34.33;;;16.60;98.70;;;;;;5035623;28;20079;-65
2022/03/25 11:32:20;;;;;;;56.35;32.75;;;15.80;98.10;;;;;;5053351;28;20048;-65
2022/03/25 11:35:06;;;;;;;58.08;31.48;;;15.70;97.30;;;;;;5053374;28;20041;-65
2022/03/25 11:37:35;;;;;;;51.03;31.45;;;15.90;97.30;;;;;;5053242;28;20041;-65
2022/03/25 11:40:14;;;;;;;54.65;31.90;;;15.90;97.20;;;;;;5053272;28;20045;-65
2022/03/25 11:42:43;;;;;;;63.92;31.80;;;16.90;97.00;;;;;;5054093;28;20041;-65
2022/03/25 11:45:22;;;;;;;58.00;31.38;;;;;;;;;;5053825;28;20052;-65
2022/03/25 11:47:59;;;;;;;57.58;31.80;;;15.20;95.60;;;;;;5053183;28;20048;-65
2022/03/25 11:50:34;;;;;;;64.50;31.45;;;16.30;95.90;;;;;;5053375;28;20044;-65
2022/03/25 11:53:21;;;;;;;57.80;31.20;;;16.40;95.40;;;;;;5053381;28;20396;-65
2022/03/25 11:56:06;;;;;;;59.22;31.65;;;16.70;94.90;;;;;;5053094;28;20041;-65
2022/03/25 11:58:33;;;;;;;63.53;29.65;;;16.60;71.80;;;;;;5053500;28;20086;-66
2022/03/25 12:01:05;;;;;;;51.45;29.63;;;16.80;93.90;;;;;;5052881;28;20115;-66
2022/03/25 12:03:47;;;;;;;52.78;29.77;;;16.60;89.70;;;;;;5035153;28;20057;-65
2022/03/25 12:06:14;;;;;;;57.40;29.50;;;16.70;92.70;;;;;;5035263;28;20048;-65
2022/03/25 12:08:55;;;;;;;55.47;28.92;;;16.90;68.10;;;;;;5018945;28;20045;-66
2022/03/25 12:11:58;;;;;;;58.30;30.73;;;17.20;67.70;;;;;;5052940;28;20048;-65
2022/03/25 12:14:30;;;;;;;49.08;30.27;;;17.10;92.00;;;;;;5035179;28;20045;-66
2022/03/25 12:17:02;;;;;;;50.58;29.23;;;17.20;90.90;;;;;;5053102;28;20037;-66
2022/03/25 12:19:30;;;;;;;54.53;28.65;;;16.80;89.90;;;;;;5053258;28;20064;-66
2022/03/25 12:22:19;;;;;;;54.70;28.40;;;17.40;89.50;;;;;;5056546;28;20064;-66
2022/03/25 12:24:46;;;;;;;55.10;29.23;;;17.10;90.90;;;;;;5046500;28;20052;-66
2022/03/25 12:27:12;;;;;;;54.97;26.52;;;;;;;;;;5057085;28;20048;-67
2022/03/25 12:29:41;;;;;;;56.30;27.38;;;17.40;62.90;;;;;;5056991;28;20064;-67
2022/03/25 12:32:15;;;;;;;45.70;24.27;;;17.60;87.70;;;;;;5039403;28;20070;-63
2022/03/25 12:35:00;;;;;;;43.60;24.85;;;17.50;61.10;;;;;;5057047;28;20033;-65
2022/03/25 12:37:32;;;;;;;50.47;25.90;;;17.60;76.00;;;;;;5057034;28;20040;-68
2022/03/25 12:40:11;;;;;;;48.53;26.48;;;17.60;60.50;;;;;;5038751;28;20287;-68
2022/03/25 12:42:38;;;;;;;46.15;25.63;;;;;;;;;;5039027;28;20044;-68
2022/03/25 12:45:04;;;;;;;42.40;24.00;;;17.70;79.80;;;;;;5038926;28;20388;-67
2022/03/25 12:47:31;;;;;;;49.72;22.25;;;17.90;84.20;;;;;;5056536;28;20500;-68
2022/03/25 12:49:59;;;;;;;45.50;22.85;;;17.90;84.20;;;;;;5056694;28;20041;-68
2022/03/25 12:52:25;;;;;;;42.42;23.52;;;17.90;84.10;;;;;;5056570;28;20108;-68
2022/03/25 12:54:51;;;;;;;43.42;23.38;;;;;;;;;;5056188;28;20564;-68